Terminal Aerodrome Forecast
Issued by NWS

Current Version | Previous Version | Text Only | Print | Product List | Glossary On
Versions: 1 2 3 4 5 6 7 8 9 10 11 12
000
FTUS45 KVEF 271700
TAFBIH
TAF
KBIH 271720Z 2718/2818 33006KT P6SM SKC
     FM272000 15010KT P6SM SKC
     FM280400 33006KT P6SM SKC=

USA.gov is the U.S. government's official web portal to all federal, state and local government web resources and services.